Time;durP1;ratioP1;P1;durP2;ratioP2;P2;SDS_P1;SDS_P2;PMS_P1;PMS_P2;Temp;Humidity;BMP_temperature;BMP_pressure;BME280_temperature;BME280_humidity;BME280_pressure;Samples;Min_cycle;Max_cycle;Signal;HPM_P1;HPM_P2
2023/08/09 00:00:20;;;;;;;8.55;2.15;;;12.00;99.90;;;;;;5063882;28;20137;-73
2023/08/09 00:02:45;;;;;;;7.72;2.22;;;12.00;99.90;;;;;;5062315;28;20053;-69
2023/08/09 00:05:11;;;;;;;5.45;2.00;;;11.90;99.90;;;;;;5046668;28;20052;-72
2023/08/09 00:07:37;;;;;;;6.28;2.00;;;11.90;99.90;;;;;;5064790;28;20039;-74
2023/08/09 00:10:03;;;;;;;8.93;1.90;;;11.90;99.90;;;;;;5061959;28;20480;-73
2023/08/09 00:12:30;;;;;;;8.15;2.00;;;11.90;99.90;;;;;;5061274;28;20512;-68
2023/08/09 00:14:56;;;;;;;7.68;2.10;;;11.90;99.90;;;;;;5046261;28;20045;-70
2023/08/09 00:17:21;;;;;;;8.25;2.30;;;11.90;99.90;;;;;;5047466;28;20531;-70
2023/08/09 00:19:47;;;;;;;7.25;2.13;;;11.90;99.90;;;;;;5067036;28;20487;-70
2023/08/09 00:22:12;;;;;;;6.78;1.70;;;11.90;99.90;;;;;;5065491;28;20059;-71
2023/08/09 00:24:38;;;;;;;5.68;2.00;;;11.80;99.90;;;;;;5046749;28;20128;-67
2023/08/09 00:27:04;;;;;;;10.13;2.05;;;11.90;99.90;;;;;;5047974;28;20083;-68
2023/08/09 00:29:29;;;;;;;8.40;1.63;;;11.90;99.90;;;;;;5064891;28;20508;-71
2023/08/09 00:31:56;;;;;;;9.70;2.17;;;11.80;99.90;;;;;;5055067;28;20175;-67
2023/08/09 00:34:21;;;;;;;8.68;2.50;;;11.80;99.90;;;;;;5050369;28;20036;-70
2023/08/09 00:36:47;;;;;;;8.77;2.20;;;11.80;99.90;;;;;;5100101;28;20070;-68
2023/08/09 00:39:15;;;;;;;12.70;2.70;;;11.80;99.90;;;;;;5066105;28;20053;-72
2023/08/09 00:41:41;;;;;;;7.45;2.10;;;11.70;99.90;;;;;;5064689;28;20040;-70
2023/08/09 00:44:06;;;;;;;7.68;2.30;;;11.70;99.90;;;;;;5064705;28;20072;-71
2023/08/09 00:46:32;;;;;;;9.80;2.80;;;11.70;99.90;;;;;;5066261;28;20511;-69
2023/08/09 00:48:58;;;;;;;8.20;2.08;;;11.70;99.90;;;;;;5049741;28;20514;-72
2023/08/09 00:51:23;;;;;;;7.75;2.60;;;11.60;99.90;;;;;;5054385;28;20049;-70
2023/08/09 00:53:49;;;;;;;9.20;2.05;;;11.60;99.90;;;;;;5030048;28;20040;-70
2023/08/09 00:56:15;;;;;;;11.48;2.35;;;11.60;99.90;;;;;;5045924;28;20055;-70
2023/08/09 00:58:41;;;;;;;9.07;2.03;;;11.60;99.90;;;;;;5057994;28;20093;-70
2023/08/09 01:01:07;;;;;;;6.28;2.28;;;11.60;99.90;;;;;;5049451;28;20105;-69
2023/08/09 01:03:32;;;;;;;7.55;2.40;;;11.60;99.90;;;;;;5049981;28;20109;-70
2023/08/09 01:06:10;;;;;;;9.95;2.20;;;11.60;99.90;;;;;;5029608;28;20047;-72
2023/08/09 01:08:49;;;;;;;9.70;2.35;;;11.60;99.90;;;;;;5029555;28;20063;-72
2023/08/09 01:11:29;;;;;;;6.97;2.20;;;11.60;99.90;;;;;;5035948;28;20082;-71
2023/08/09 01:13:55;;;;;;;10.50;2.50;;;11.60;99.90;;;;;;5050957;28;20037;-68
2023/08/09 01:16:24;;;;;;;6.88;2.50;;;11.50;99.90;;;;;;5047440;28;20044;-68
2023/08/09 01:18:51;;;;;;;8.95;2.22;;;11.50;99.90;;;;;;5031037;28;20418;-71
2023/08/09 01:21:18;;;;;;;7.47;2.40;;;11.50;99.90;;;;;;5065662;28;20083;-71
2023/08/09 01:23:45;;;;;;;6.45;1.90;;;11.50;99.90;;;;;;5066303;28;20213;-69
2023/08/09 01:26:12;;;;;;;8.93;2.28;;;11.40;99.90;;;;;;5064243;28;20120;-66
2023/08/09 01:28:38;;;;;;;7.13;2.13;;;11.40;99.90;;;;;;5046912;28;20458;-70
2023/08/09 01:31:04;;;;;;;8.32;2.30;;;11.40;99.90;;;;;;5061074;28;20574;-68
2023/08/09 01:33:30;;;;;;;6.28;2.20;;;11.40;99.90;;;;;;5045382;28;20045;-74
2023/08/09 01:36:08;;;;;;;8.02;2.13;;;11.40;99.90;;;;;;5028845;28;20040;-70
2023/08/09 01:38:44;;;;;;;8.13;1.98;;;11.40;99.90;;;;;;5028842;28;20095;-70
2023/08/09 01:41:10;;;;;;;7.07;1.92;;;11.40;99.90;;;;;;5051657;28;20032;-72
2023/08/09 01:43:37;;;;;;;6.97;2.00;;;11.40;99.90;;;;;;5063180;28;20048;-72
2023/08/09 01:46:03;;;;;;;9.65;2.33;;;11.40;99.90;;;;;;5048612;28;20086;-70
2023/08/09 01:48:29;;;;;;;7.60;2.15;;;11.40;99.90;;;;;;5060468;28;20036;-70
2023/08/09 01:50:54;;;;;;;9.40;2.63;;;11.40;99.90;;;;;;5046643;28;20434;-66
2023/08/09 01:53:20;;;;;;;11.60;2.38;;;11.40;99.90;;;;;;5079030;28;20568;-67
2023/08/09 01:55:46;;;;;;;8.73;2.28;;;11.40;99.90;;;;;;5031299;28;20036;-71
2023/08/09 01:58:11;;;;;;;8.63;2.50;;;11.40;99.90;;;;;;5056245;28;20072;-71
2023/08/09 02:00:37;;;;;;;8.80;2.42;;;11.40;99.90;;;;;;5028563;28;20041;-69
2023/08/09 02:03:03;;;;;;;13.30;2.47;;;11.30;99.90;;;;;;5031437;28;20074;-67
2023/08/09 02:05:28;;;;;;;10.68;2.60;;;11.30;99.90;;;;;;5064696;28;20102;-67
2023/08/09 02:07:54;;;;;;;7.95;2.50;;;11.30;99.90;;;;;;5062809;28;20044;-69
2023/08/09 02:10:20;;;;;;;6.35;2.63;;;11.30;99.90;;;;;;5047139;28;20044;-72
2023/08/09 02:12:48;;;;;;;6.95;2.45;;;11.30;99.90;;;;;;5049674;28;20032;-71
2023/08/09 02:15:20;;;;;;;10.65;2.42;;;11.30;99.90;;;;;;5048261;28;20045;-72
2023/08/09 02:17:46;;;;;;;9.02;2.58;;;11.20;99.90;;;;;;5066570;28;20048;-72
2023/08/09 02:20:12;;;;;;;8.40;2.78;;;11.20;99.90;;;;;;5049333;28;20665;-66
2023/08/09 02:22:39;;;;;;;8.13;2.80;;;11.20;99.90;;;;;;5027736;28;20076;-69
2023/08/09 02:25:06;;;;;;;14.65;2.70;;;11.20;99.90;;;;;;5035574;28;20266;-73
2023/08/09 02:27:33;;;;;;;6.97;2.28;;;11.20;99.90;;;;;;5042013;28;20043;-68
2023/08/09 02:29:58;;;;;;;11.50;2.55;;;11.20;99.90;;;;;;5044563;28;20033;-70
2023/08/09 02:32:24;;;;;;;9.35;3.10;;;11.10;99.90;;;;;;5044518;28;20051;-69
2023/08/09 02:34:50;;;;;;;6.75;2.38;;;11.10;99.90;;;;;;5046176;28;20242;-73
2023/08/09 02:37:15;;;;;;;12.27;3.15;;;11.10;99.90;;;;;;5053484;28;20123;-70
2023/08/09 02:39:41;;;;;;;9.18;2.63;;;11.10;99.90;;;;;;5064372;28;20151;-73
2023/08/09 02:42:07;;;;;;;8.43;2.67;;;11.10;99.90;;;;;;5062008;28;20041;-69
2023/08/09 02:44:32;;;;;;;6.45;2.47;;;11.10;99.90;;;;;;5043845;28;20052;-68
2023/08/09 02:46:59;;;;;;;7.72;2.88;;;11.10;99.90;;;;;;5045434;28;20036;-75
2023/08/09 02:49:24;;;;;;;9.98;2.80;;;11.10;99.90;;;;;;5044320;28;20068;-73
2023/08/09 02:51:50;;;;;;;6.90;2.22;;;11.00;99.90;;;;;;5059825;28;20064;-76
2023/08/09 02:54:16;;;;;;;8.98;2.80;;;11.00;99.90;;;;;;5065140;28;20480;-68
2023/08/09 02:56:41;;;;;;;6.60;2.42;;;11.00;99.90;;;;;;5051632;28;20091;-71
2023/08/09 02:59:07;;;;;;;14.85;2.95;;;11.00;99.90;;;;;;5060261;28;20044;-69
2023/08/09 03:01:33;;;;;;;9.38;2.85;;;11.00;99.90;;;;;;5063810;28;20074;-67
2023/08/09 03:03:59;;;;;;;9.50;2.85;;;11.00;99.90;;;;;;5046944;28;20075;-67
2023/08/09 03:06:25;;;;;;;8.40;2.50;;;11.00;99.90;;;;;;5045610;28;20060;-71
2023/08/09 03:08:52;;;;;;;10.55;3.00;;;11.00;99.90;;;;;;5065619;28;20273;-70
2023/08/09 03:11:23;;;;;;;10.05;3.03;;;10.90;99.90;;;;;;5050703;28;20036;-69
2023/08/09 03:13:49;;;;;;;7.90;3.17;;;10.90;99.90;;;;;;5045461;28;20127;-67
2023/08/09 03:16:15;;;;;;;9.80;3.10;;;10.90;99.90;;;;;;5064031;28;20135;-69
2023/08/09 03:18:40;;;;;;;8.93;2.85;;;10.90;99.90;;;;;;5062474;28;20040;-71
2023/08/09 03:21:07;;;;;;;9.13;3.00;;;11.00;99.90;;;;;;5064770;28;20127;-71
2023/08/09 03:23:33;;;;;;;10.55;3.08;;;10.90;99.90;;;;;;5036409;28;20102;-66
2023/08/09 03:25:59;;;;;;;10.27;3.00;;;11.00;99.90;;;;;;5048401;28;20418;-68
2023/08/09 03:28:24;;;;;;;9.98;2.70;;;10.90;99.90;;;;;;5096095;28;20044;-70
2023/08/09 03:30:50;;;;;;;10.13;2.85;;;11.00;99.90;;;;;;5059826;28;20071;-71
2023/08/09 03:33:17;;;;;;;6.80;2.95;;;10.90;99.90;;;;;;5042121;28;20449;-67
2023/08/09 03:35:43;;;;;;;8.07;2.80;;;10.90;99.90;;;;;;5065741;28;20091;-74
2023/08/09 03:38:08;;;;;;;9.38;3.40;;;10.90;99.90;;;;;;5063737;28;20483;-68
2023/08/09 03:40:34;;;;;;;9.18;3.00;;;10.90;99.90;;;;;;5060904;28;20127;-70
2023/08/09 03:43:00;;;;;;;10.20;3.30;;;10.90;99.90;;;;;;5043729;28;20041;-68
2023/08/09 03:45:26;;;;;;;9.93;3.50;;;10.90;99.90;;;;;;5043556;28;20095;-71
2023/08/09 03:47:52;;;;;;;11.68;3.30;;;10.90;99.90;;;;;;5027342;28;20045;-72
2023/08/09 03:50:18;;;;;;;9.85;3.20;;;10.90;99.90;;;;;;5027364;28;20535;-73
2023/08/09 03:52:44;;;;;;;6.30;3.15;;;10.90;99.90;;;;;;5044894;28;20074;-70
2023/08/09 03:55:10;;;;;;;8.02;3.00;;;10.90;99.90;;;;;;5030909;28;20045;-70
2023/08/09 03:57:36;;;;;;;8.27;3.00;;;10.90;99.90;;;;;;5095133;28;20044;-69
2023/08/09 04:00:03;;;;;;;9.35;3.38;;;10.80;99.90;;;;;;5031102;28;20082;-73
2023/08/09 04:02:28;;;;;;;11.77;3.50;;;10.80;99.90;;;;;;5051037;28;20066;-73
2023/08/09 04:04:54;;;;;;;6.57;3.22;;;10.80;99.90;;;;;;5067497;28;20403;-69
2023/08/09 04:07:20;;;;;;;11.55;3.30;;;10.80;99.90;;;;;;5063276;28;20052;-69
2023/08/09 04:09:46;;;;;;;7.43;3.15;;;10.80;99.90;;;;;;5030954;28;20033;-71
2023/08/09 04:12:11;;;;;;;6.97;3.40;;;10.80;99.90;;;;;;5029946;28;20041;-69
2023/08/09 04:14:38;;;;;;;9.52;3.35;;;10.70;99.90;;;;;;5063471;28;20075;-72
2023/08/09 04:17:05;;;;;;;9.85;3.30;;;10.70;99.90;;;;;;5047584;28;20455;-76
2023/08/09 04:19:30;;;;;;;9.27;3.67;;;10.80;99.90;;;;;;5048660;28;20043;-69
2023/08/09 04:21:57;;;;;;;16.95;3.50;;;10.70;99.90;;;;;;5086466;28;20239;-70
2023/08/09 04:24:22;;;;;;;9.00;3.00;;;10.80;99.90;;;;;;5068743;28;20051;-75
2023/08/09 04:26:48;;;;;;;6.32;2.78;;;10.80;99.90;;;;;;5066273;28;20036;-72
2023/08/09 04:29:14;;;;;;;7.53;3.15;;;10.80;99.90;;;;;;5050924;28;20067;-73
2023/08/09 04:31:39;;;;;;;8.07;2.90;;;10.80;99.90;;;;;;5047306;28;20049;-70
2023/08/09 04:34:05;;;;;;;8.70;3.20;;;10.90;99.90;;;;;;5031059;28;20043;-73
2023/08/09 04:36:31;;;;;;;10.38;3.25;;;10.90;99.90;;;;;;5049985;28;20271;-71
2023/08/09 04:38:59;;;;;;;10.00;3.38;;;10.90;99.90;;;;;;5067537;28;20059;-69
2023/08/09 04:41:25;;;;;;;7.63;3.75;;;11.00;99.90;;;;;;5058827;28;20029;-71
2023/08/09 04:43:51;;;;;;;7.90;3.20;;;11.00;99.90;;;;;;5042428;28;20268;-68
2023/08/09 04:46:16;;;;;;;7.40;2.60;;;11.10;99.90;;;;;;5066666;28;20051;-69
2023/08/09 04:48:43;;;;;;;9.80;3.10;;;11.20;99.90;;;;;;5066580;28;20036;-68
2023/08/09 04:51:09;;;;;;;9.90;3.47;;;11.40;99.90;;;;;;5055894;28;20275;-68
2023/08/09 04:53:36;;;;;;;9.02;3.47;;;11.60;99.90;;;;;;5048558;28;20045;-67
2023/08/09 04:56:03;;;;;;;7.20;2.47;;;11.80;99.90;;;;;;5050227;28;20060;-66
2023/08/09 04:58:32;;;;;;;6.25;2.85;;;12.00;99.90;;;;;;5064903;28;20115;-68
2023/08/09 05:00:58;;;;;;;6.82;2.60;;;12.10;99.90;;;;;;5066206;28;20040;-66
2023/08/09 05:03:24;;;;;;;6.90;2.70;;;12.30;99.90;;;;;;5065673;28;20060;-70
2023/08/09 05:05:50;;;;;;;6.63;2.80;;;12.50;99.90;;;;;;5048890;28;20045;-63
2023/08/09 05:08:16;;;;;;;5.47;2.53;;;12.70;99.90;;;;;;5052305;28;20036;-70
2023/08/09 05:10:41;;;;;;;7.78;2.30;;;12.90;99.90;;;;;;5047431;28;20120;-72
2023/08/09 05:13:07;;;;;;;8.70;2.78;;;13.00;99.90;;;;;;5057899;28;20573;-68
2023/08/09 05:15:33;;;;;;;7.45;2.60;;;13.20;99.90;;;;;;5047613;28;20532;-68
2023/08/09 05:17:58;;;;;;;7.80;2.40;;;13.30;99.90;;;;;;5047636;28;20040;-71
2023/08/09 05:20:24;;;;;;;6.07;2.25;;;13.50;99.90;;;;;;5045821;28;20408;-70
2023/08/09 05:22:50;;;;;;;5.90;1.90;;;13.60;99.90;;;;;;5059884;28;20458;-72
2023/08/09 05:25:17;;;;;;;6.75;2.28;;;13.70;99.90;;;;;;5067350;28;20436;-67
2023/08/09 05:27:47;;;;;;;5.10;2.00;;;13.80;99.90;;;;;;5048266;28;20079;-69
2023/08/09 05:30:13;;;;;;;6.20;2.28;;;14.00;99.90;;;;;;5067029;28;20224;-70
2023/08/09 05:32:38;;;;;;;6.10;2.08;;;14.10;99.90;;;;;;5081327;28;20072;-67
2023/08/09 05:35:05;;;;;;;10.05;2.00;;;14.30;99.90;;;;;;5045566;28;20083;-70
2023/08/09 05:37:30;;;;;;;9.32;2.05;;;14.50;99.90;;;;;;5056140;28;20047;-70
2023/08/09 05:39:56;;;;;;;8.38;2.20;;;15.10;99.90;;;;;;5049101;28;20040;-72
2023/08/09 05:42:22;;;;;;;3.67;1.42;;;15.20;99.90;;;;;;5061836;28;20052;-68
2023/08/09 05:44:47;;;;;;;5.20;1.88;;;15.50;99.90;;;;;;5028497;28;20554;-65
2023/08/09 05:47:13;;;;;;;9.13;1.95;;;15.60;99.90;;;;;;5052547;28;20065;-65
2023/08/09 05:49:39;;;;;;;9.23;2.17;;;15.90;99.90;;;;;;5048666;28;20044;-69
2023/08/09 05:52:05;;;;;;;4.15;1.70;;;16.40;99.90;;;;;;5065009;28;20503;-68
2023/08/09 05:54:30;;;;;;;5.70;1.52;;;16.50;99.90;;;;;;5065589;28;20040;-68
2023/08/09 05:56:56;;;;;;;4.85;1.80;;;16.30;99.90;;;;;;5051719;28;20252;-66
2023/08/09 05:59:22;;;;;;;6.70;1.70;;;16.40;99.90;;;;;;5044635;28;20044;-71
2023/08/09 06:01:49;;;;;;;5.65;1.83;;;16.40;99.90;;;;;;5066235;28;20570;-72
2023/08/09 06:04:15;;;;;;;6.07;1.60;;;16.20;99.90;;;;;;5064851;28;20496;-70
2023/08/09 06:06:40;;;;;;;5.47;1.60;;;16.40;99.90;;;;;;5044190;28;20049;-69
2023/08/09 06:09:09;;;;;;;9.63;1.83;;;16.80;99.90;;;;;;5048435;28;20072;-72
2023/08/09 06:11:37;;;;;;;6.97;1.63;;;16.80;99.90;;;;;;5054513;28;20048;-70
2023/08/09 06:14:03;;;;;;;8.35;1.67;;;16.30;99.90;;;;;;5042004;28;20395;-73
2023/08/09 06:16:29;;;;;;;4.03;1.50;;;16.10;99.90;;;;;;5045799;28;20068;-67
2023/08/09 06:18:55;;;;;;;6.43;1.73;;;16.00;99.90;;;;;;5066080;28;20531;-69
2023/08/09 06:21:20;;;;;;;5.78;1.50;;;15.90;99.90;;;;;;5047962;28;20087;-68
2023/08/09 06:23:46;;;;;;;5.40;1.40;;;15.90;99.90;;;;;;5062820;28;20041;-66
2023/08/09 06:26:12;;;;;;;9.48;1.80;;;15.90;99.90;;;;;;5062773;28;20033;-70
2023/08/09 06:28:38;;;;;;;7.57;1.80;;;15.90;99.90;;;;;;5046032;28;20043;-72
2023/08/09 06:31:04;;;;;;;5.55;1.80;;;16.00;99.90;;;;;;5060156;28;20507;-67
2023/08/09 06:33:30;;;;;;;7.05;1.73;;;16.10;99.90;;;;;;5028145;28;20045;-73
2023/08/09 06:35:56;;;;;;;5.55;1.77;;;16.20;99.90;;;;;;5048241;28;20037;-66
2023/08/09 06:38:22;;;;;;;6.38;1.70;;;16.30;99.90;;;;;;5064090;28;20063;-68
2023/08/09 06:40:47;;;;;;;6.15;1.63;;;16.30;99.90;;;;;;5060746;28;20082;-64
2023/08/09 06:43:13;;;;;;;5.75;1.48;;;16.40;99.90;;;;;;5051077;28;20083;-67
2023/08/09 06:45:39;;;;;;;7.85;1.67;;;16.40;99.90;;;;;;5066080;28;20040;-63
2023/08/09 06:48:07;;;;;;;5.80;1.50;;;16.40;99.90;;;;;;5065474;28;20043;-74
2023/08/09 06:50:33;;;;;;;8.30;1.60;;;16.50;99.90;;;;;;5050209;28;20598;-67
2023/08/09 06:52:59;;;;;;;5.40;1.60;;;16.60;99.90;;;;;;5044435;28;20089;-69
2023/08/09 06:55:25;;;;;;;7.68;1.25;;;16.60;99.90;;;;;;5044268;28;20139;-69
2023/08/09 06:57:50;;;;;;;5.50;1.55;;;16.70;99.90;;;;;;5030514;28;20503;-68
2023/08/09 07:00:17;;;;;;;4.88;1.65;;;16.70;99.90;;;;;;5065878;28;20410;-72
2023/08/09 07:02:45;;;;;;;8.95;1.70;;;16.80;99.90;;;;;;5063563;28;20103;-68
2023/08/09 07:05:15;;;;;;;6.10;1.42;;;16.80;99.90;;;;;;5045688;28;20072;-71
2023/08/09 07:07:45;;;;;;;11.02;1.50;;;16.90;99.90;;;;;;5064133;28;20438;-71
2023/08/09 07:10:12;;;;;;;5.82;1.60;;;17.00;99.90;;;;;;5047574;28;20522;-68
2023/08/09 07:12:38;;;;;;;5.35;1.50;;;17.00;99.90;;;;;;5046771;28;20040;-68
2023/08/09 07:15:08;;;;;;;5.47;1.30;;;17.10;99.90;;;;;;5063681;28;20048;-69
2023/08/09 07:17:34;;;;;;;4.40;1.40;;;17.20;99.90;;;;;;5046920;28;20048;-68
2023/08/09 07:19:59;;;;;;;6.63;1.60;;;17.20;99.90;;;;;;5052378;28;20048;-67
2023/08/09 07:22:25;;;;;;;9.10;1.90;;;17.30;99.90;;;;;;5027224;28;20041;-70
2023/08/09 07:24:51;;;;;;;5.90;1.27;;;17.30;99.90;;;;;;5044227;28;20068;-68
2023/08/09 07:27:17;;;;;;;9.15;1.60;;;17.30;99.90;;;;;;5043976;28;20072;-68
2023/08/09 07:29:42;;;;;;;4.30;1.10;;;17.40;99.90;;;;;;5027665;28;20457;-70
2023/08/09 07:32:08;;;;;;;8.07;1.70;;;17.40;99.90;;;;;;5048050;28;20190;-69
2023/08/09 07:34:34;;;;;;;8.07;1.42;;;17.40;99.90;;;;;;5063015;28;20028;-67
2023/08/09 07:37:00;;;;;;;6.25;1.50;;;17.50;99.90;;;;;;5043256;28;20056;-71
2023/08/09 07:39:26;;;;;;;5.30;1.23;;;17.50;99.90;;;;;;5044061;28;20138;-64
2023/08/09 07:41:51;;;;;;;6.13;1.27;;;17.60;99.90;;;;;;5053423;28;20095;-69
2023/08/09 07:44:17;;;;;;;6.45;1.42;;;17.60;99.90;;;;;;5046316;28;20060;-67
2023/08/09 07:46:43;;;;;;;5.22;1.40;;;17.50;99.90;;;;;;5043219;28;20056;-70
2023/08/09 07:49:08;;;;;;;5.25;1.23;;;17.60;99.90;;;;;;5043524;28;20049;-70
2023/08/09 07:51:34;;;;;;;4.20;1.10;;;17.50;99.90;;;;;;5026817;28;20056;-66
2023/08/09 07:53:59;;;;;;;5.63;1.20;;;17.60;99.90;;;;;;5043541;28;20130;-66
2023/08/09 07:56:25;;;;;;;7.07;1.58;;;17.60;99.90;;;;;;5049713;28;20396;-69
2023/08/09 07:58:51;;;;;;;4.88;1.20;;;17.70;99.90;;;;;;5044687;28;20559;-66
2023/08/09 08:01:17;;;;;;;5.60;1.30;;;17.70;99.90;;;;;;5063496;28;20056;-68
2023/08/09 08:03:42;;;;;;;4.65;1.15;;;17.80;99.90;;;;;;5055082;28;20159;-69
2023/08/09 08:06:08;;;;;;;4.28;1.10;;;17.80;99.90;;;;;;5076481;28;20083;-68
2023/08/09 08:08:34;;;;;;;3.38;1.20;;;17.80;99.90;;;;;;5035298;28;20125;-67
2023/08/09 08:11:00;;;;;;;5.63;1.60;;;17.90;99.90;;;;;;5042223;28;20037;-67
2023/08/09 08:13:25;;;;;;;4.10;0.90;;;17.90;99.90;;;;;;5051268;28;20120;-69
2023/08/09 08:15:52;;;;;;;6.82;1.10;;;18.00;99.90;;;;;;5046335;28;20119;-66
2023/08/09 08:18:18;;;;;;;6.30;1.05;;;18.10;99.90;;;;;;5063110;28;20110;-69
2023/08/09 08:20:43;;;;;;;7.45;1.15;;;18.20;99.90;;;;;;5063292;28;20520;-66
2023/08/09 08:23:10;;;;;;;6.72;1.45;;;18.20;99.90;;;;;;5063365;28;20051;-70
2023/08/09 08:25:35;;;;;;;7.10;1.35;;;18.20;99.90;;;;;;5061490;28;20040;-67
2023/08/09 08:28:01;;;;;;;7.40;1.67;;;18.30;99.90;;;;;;5033954;28;20039;-67
2023/08/09 08:30:26;;;;;;;9.05;1.35;;;18.30;99.90;;;;;;5063117;28;20043;-68
2023/08/09 08:32:52;;;;;;;6.70;1.52;;;18.40;99.90;;;;;;5043415;28;20045;-68
2023/08/09 08:35:21;;;;;;;4.95;1.02;;;18.50;99.90;;;;;;5025828;28;20037;-68
2023/08/09 08:37:48;;;;;;;6.10;1.02;;;18.70;99.90;;;;;;5042960;28;20480;-68
2023/08/09 08:40:17;;;;;;;4.93;1.10;;;18.60;99.90;;;;;;5028571;28;20437;-65
2023/08/09 08:42:48;;;;;;;5.97;1.42;;;18.50;99.90;;;;;;5048480;28;20526;-68
2023/08/09 08:45:15;;;;;;;4.70;1.02;;;18.50;99.90;;;;;;5067529;28;20131;-66
2023/08/09 08:47:42;;;;;;;3.30;0.90;;;18.50;99.90;;;;;;5060095;28;20110;-67
2023/08/09 08:50:10;;;;;;;4.50;1.00;;;18.60;99.90;;;;;;5046608;28;20484;-68
2023/08/09 08:52:38;;;;;;;7.75;0.93;;;18.70;99.90;;;;;;5047660;28;20123;-68
2023/08/09 08:55:11;;;;;;;4.80;1.10;;;18.80;99.90;;;;;;5046100;28;20045;-67
2023/08/09 08:57:38;;;;;;;5.90;1.15;;;18.90;99.90;;;;;;5058650;28;20040;-67
2023/08/09 09:00:08;;;;;;;4.95;1.20;;;18.90;99.90;;;;;;5047701;28;20071;-68
2023/08/09 09:02:38;;;;;;;6.43;1.17;;;18.90;99.90;;;;;;5046093;28;20557;-69
2023/08/09 09:05:06;;;;;;;6.88;1.90;;;18.80;99.90;;;;;;5047189;28;20055;-65
2023/08/09 09:07:33;;;;;;;4.75;1.25;;;18.60;99.90;;;;;;5060806;28;20044;-65
2023/08/09 09:09:59;;;;;;;4.80;1.05;;;18.50;99.90;;;;;;5067406;28;20344;-65
2023/08/09 09:12:26;;;;;;;3.47;1.05;;;18.40;99.90;;;;;;5048798;28;20447;-66
2023/08/09 09:14:52;;;;;;;5.70;1.10;;;18.20;99.90;;;;;;5026104;28;20519;-66
2023/08/09 09:17:20;;;;;;;5.63;1.20;;;18.10;99.90;;;;;;5059088;28;20148;-66
2023/08/09 09:19:46;;;;;;;5.75;1.20;;;18.00;99.90;;;;;;5035666;28;20040;-68
2023/08/09 09:22:29;;;;;;;7.07;1.30;;;17.90;99.90;;;;;;5065464;28;20391;-66
2023/08/09 09:24:59;;;;;;;4.38;0.95;;;17.90;99.90;;;;;;5046651;28;20350;-71
2023/08/09 09:27:33;;;;;;;4.70;1.10;;;17.90;99.90;;;;;;5045194;28;20037;-68
2023/08/09 09:30:09;;;;;;;5.60;1.10;;;18.10;99.90;;;;;;5042553;28;20033;-67
2023/08/09 09:32:35;;;;;;;7.10;1.20;;;18.30;99.90;;;;;;5025464;28;20041;-66
2023/08/09 09:35:01;;;;;;;5.47;1.10;;;18.40;99.90;;;;;;5054331;28;20272;-69
2023/08/09 09:37:28;;;;;;;3.58;1.10;;;18.40;99.90;;;;;;5048562;28;20048;-68
2023/08/09 09:39:54;;;;;;;5.40;1.17;;;18.40;99.90;;;;;;5065517;28;20087;-67
2023/08/09 09:42:32;;;;;;;4.57;1.20;;;18.70;99.90;;;;;;5046115;28;20049;-65
2023/08/09 09:45:07;;;;;;;6.28;1.10;;;18.90;99.90;;;;;;5026756;28;20180;-66
2023/08/09 09:47:38;;;;;;;5.80;1.20;;;19.00;99.90;;;;;;5058718;28;20501;-68
2023/08/09 09:50:07;;;;;;;5.07;1.20;;;19.10;99.90;;;;;;5055698;28;20041;-70
2023/08/09 09:52:35;;;;;;;7.78;1.40;;;19.00;99.90;;;;;;5048084;28;20072;-63
2023/08/09 09:55:01;;;;;;;3.75;1.10;;;19.00;99.90;;;;;;5064928;28;20047;-65
2023/08/09 09:57:27;;;;;;;5.10;0.90;;;18.90;99.90;;;;;;5048278;28;20040;-68
2023/08/09 09:59:59;;;;;;;6.65;1.20;;;18.80;99.90;;;;;;5066246;28;20213;-69
2023/08/09 10:02:31;;;;;;;5.32;1.40;;;18.90;99.90;;;;;;5066264;28;20293;-64
2023/08/09 10:04:59;;;;;;;4.32;1.13;;;18.90;99.90;;;;;;5064978;28;20483;-68
2023/08/09 10:07:29;;;;;;;5.22;1.30;;;18.90;99.90;;;;;;5062690;28;20098;-67
2023/08/09 10:09:58;;;;;;;2.90;1.25;;;19.00;99.90;;;;;;5065220;28;20567;-67
2023/08/09 10:12:23;;;;;;;4.75;1.10;;;19.10;99.90;;;;;;5061680;28;20539;-67
2023/08/09 10:14:49;;;;;;;9.20;1.42;;;19.40;99.90;;;;;;5064305;28;20054;-66
2023/08/09 10:17:19;;;;;;;3.42;1.17;;;19.60;99.90;;;;;;5047988;28;20259;-65
2023/08/09 10:19:45;;;;;;;5.00;1.30;;;19.70;99.90;;;;;;5064755;28;20559;-66
2023/08/09 10:22:12;;;;;;;4.53;1.20;;;19.90;99.10;;;;;;5053104;28;20036;-69
2023/08/09 10:24:47;;;;;;;5.07;1.10;;;20.00;98.70;;;;;;5077990;28;20059;-69
2023/08/09 10:27:13;;;;;;;7.68;1.27;;;20.00;98.20;;;;;;5061705;28;20229;-65
2023/08/09 10:29:41;;;;;;;6.18;1.10;;;19.90;98.10;;;;;;5063241;28;20045;-73
2023/08/09 10:32:07;;;;;;;4.05;1.15;;;19.70;98.90;;;;;;5034420;28;20072;-69
2023/08/09 10:34:34;;;;;;;4.50;1.10;;;19.60;99.90;;;;;;5044582;28;20450;-68
2023/08/09 10:37:03;;;;;;;7.95;1.52;;;19.50;99.90;;;;;;5027034;28;20072;-67
2023/08/09 10:39:32;;;;;;;2.78;0.90;;;19.60;99.90;;;;;;5027827;28;20067;-66
2023/08/09 10:42:09;;;;;;;4.00;1.00;;;19.70;99.30;;;;;;5054291;28;20041;-65
2023/08/09 10:45:03;;;;;;;4.10;1.10;;;19.80;99.00;;;;;;5062943;28;20529;-68
2023/08/09 10:47:30;;;;;;;4.50;1.20;;;19.90;99.90;;;;;;5062520;28;20037;-65
2023/08/09 10:49:59;;;;;;;5.18;1.17;;;19.80;98.50;;;;;;5047485;28;20036;-68
2023/08/09 10:52:33;;;;;;;3.80;1.10;;;19.90;98.90;;;;;;5063926;28;20040;-67
2023/08/09 10:55:26;;;;;;;3.53;1.00;;;20.00;98.50;;;;;;5063882;28;20151;-65
2023/08/09 10:57:54;;;;;;;3.47;1.42;;;20.10;97.70;;;;;;5045139;28;20449;-63
2023/08/09 11:00:22;;;;;;;4.75;1.13;;;20.20;98.80;;;;;;5064036;28;20074;-66
2023/08/09 11:02:58;;;;;;;3.67;0.95;;;20.30;98.20;;;;;;5062976;28;20087;-70
2023/08/09 11:05:27;;;;;;;5.82;1.00;;;20.50;98.20;;;;;;5057753;28;20053;-68
2023/08/09 11:07:55;;;;;;;3.58;1.08;;;20.40;98.20;;;;;;5043752;28;20263;-65
2023/08/09 11:10:32;;;;;;;5.60;1.20;;;20.20;97.80;;;;;;5043879;28;20348;-69
2023/08/09 11:13:05;;;;;;;4.50;1.30;;;20.10;98.60;;;;;;5039732;28;20447;-68
2023/08/09 11:15:32;;;;;;;3.55;1.10;;;19.90;98.70;;;;;;5043646;28;20037;-67
2023/08/09 11:17:58;;;;;;;4.55;1.10;;;19.80;98.80;;;;;;5026834;28;20060;-65
2023/08/09 11:20:23;;;;;;;2.90;1.00;;;19.80;99.30;;;;;;5063501;28;20119;-73
2023/08/09 11:22:59;;;;;;;4.90;1.13;;;19.90;98.90;;;;;;5063318;28;20095;-62
2023/08/09 11:25:28;;;;;;;4.18;1.35;;;20.00;98.00;;;;;;5063602;28;20044;-66
2023/08/09 11:27:55;;;;;;;5.47;1.20;;;19.90;98.70;;;;;;5044184;28;20045;-64
2023/08/09 11:30:22;;;;;;;4.57;1.00;;;19.90;98.80;;;;;;5026999;28;20500;-65
2023/08/09 11:32:56;;;;;;;3.15;1.10;;;19.90;99.20;;;;;;5035213;28;20539;-64
2023/08/09 11:35:44;;;;;;;5.40;1.17;;;20.00;98.70;;;;;;5065009;28;20052;-66
2023/08/09 11:38:13;;;;;;;7.07;1.50;;;20.10;98.40;;;;;;5047243;28;20044;-68
2023/08/09 11:40:59;;;;;;;5.75;1.00;;;20.20;98.10;;;;;;5063019;28;20045;-67
2023/08/09 11:43:24;;;;;;;4.75;1.30;;;20.30;97.30;;;;;;5055675;28;20056;-69
2023/08/09 11:45:55;;;;;;;3.78;1.05;;;20.50;98.00;;;;;;5063495;28;20055;-65
2023/08/09 11:48:32;;;;;;;6.22;1.40;;;20.50;97.80;;;;;;5097154;28;20040;-64
2023/08/09 11:51:11;;;;;;;4.13;1.00;;;20.60;98.20;;;;;;5063443;28;20601;-65
2023/08/09 11:53:37;;;;;;;5.00;1.25;;;20.60;97.50;;;;;;5063401;28;20044;-66
2023/08/09 11:56:18;;;;;;;6.05;1.15;;;20.60;97.40;;;;;;5059422;28;20043;-66
2023/08/09 11:58:50;;;;;;;3.90;1.20;;;20.60;96.30;;;;;;5043524;28;20045;-63
2023/08/09 12:01:18;;;;;;;5.55;1.08;;;20.50;97.40;;;;;;5043086;28;20068;-67
2023/08/09 12:03:45;;;;;;;3.33;1.20;;;20.60;98.60;;;;;;5026807;28;20579;-66
2023/08/09 12:06:11;;;;;;;5.53;1.48;;;20.50;99.00;;;;;;5059242;28;20423;-69
2023/08/09 12:08:38;;;;;;;6.25;1.40;;;20.50;98.20;;;;;;5063205;28;20514;-67
2023/08/09 12:11:04;;;;;;;5.78;1.27;;;20.50;97.70;;;;;;5040077;28;20044;-66
2023/08/09 12:13:30;;;;;;;4.32;1.10;;;20.50;98.30;;;;;;5051854;28;20440;-63
2023/08/09 12:15:56;;;;;;;3.10;1.10;;;20.60;98.40;;;;;;5066811;28;20048;-71
2023/08/09 12:18:23;;;;;;;4.78;1.38;;;20.50;98.10;;;;;;5050159;28;20096;-67
2023/08/09 12:20:49;;;;;;;5.18;1.25;;;20.50;98.60;;;;;;5065501;28;20056;-64
2023/08/09 12:23:15;;;;;;;6.45;1.30;;;20.50;98.30;;;;;;5080272;28;20045;-68
2023/08/09 12:25:40;;;;;;;2.95;1.05;;;20.60;98.30;;;;;;5046022;28;20033;-66
2023/08/09 12:28:06;;;;;;;5.22;1.10;;;20.60;98.70;;;;;;5034410;28;20124;-68
2023/08/09 12:30:31;;;;;;;5.97;1.45;;;20.60;98.50;;;;;;5066651;28;20328;-64
2023/08/09 12:32:57;;;;;;;4.85;1.10;;;20.50;98.80;;;;;;5043241;28;20044;-62
2023/08/09 12:35:23;;;;;;;5.28;1.40;;;20.40;99.00;;;;;;5059979;28;20099;-65
2023/08/09 12:37:49;;;;;;;5.15;1.30;;;20.30;99.70;;;;;;5040076;28;20333;-67
2023/08/09 12:40:16;;;;;;;4.22;1.20;;;20.40;99.90;;;;;;5046932;28;20063;-65
2023/08/09 12:42:41;;;;;;;4.57;1.10;;;20.40;99.90;;;;;;5060027;28;20357;-65
2023/08/09 12:45:08;;;;;;;3.13;1.10;;;20.30;99.90;;;;;;5030031;28;20145;-67